sensor_id;sensor_type;location;lat;lon;timestamp;temperature;humidity
8655;DHT22;13500;52.514;13.462;2022-10-14T00:01:21;10.20;99.90
8655;DHT22;13500;52.514;13.462;2022-10-14T00:03:50;10.20;99.90
8655;DHT22;13500;52.514;13.462;2022-10-14T00:06:20;10.20;99.90
8655;DHT22;13500;52.514;13.462;2022-10-14T00:08:48;10.20;99.90
8655;DHT22;13500;52.514;13.462;2022-10-14T00:11:18;10.20;99.90
8655;DHT22;13500;52.514;13.462;2022-10-14T00:13:46;10.20;99.90
8655;DHT22;13500;52.514;13.462;2022-10-14T00:16:16;10.20;99.90
8655;DHT22;13500;52.514;13.462;2022-10-14T00:18:46;10.10;99.90
8655;DHT22;13500;52.514;13.462;2022-10-14T00:21:14;10.10;99.90
8655;DHT22;13500;52.514;13.462;2022-10-14T00:23:43;10.10;99.90
8655;DHT22;13500;52.514;13.462;2022-10-14T00:26:16;10.10;99.90
8655;DHT22;13500;52.514;13.462;2022-10-14T00:28:45;10.10;99.90
8655;DHT22;13500;52.514;13.462;2022-10-14T00:31:13;10.10;99.90
8655;DHT22;13500;52.514;13.462;2022-10-14T00:33:46;10.10;99.90
8655;DHT22;13500;52.514;13.462;2022-10-14T00:36:16;10.00;99.90
8655;DHT22;13500;52.514;13.462;2022-10-14T00:38:44;10.00;99.90
8655;DHT22;13500;52.514;13.462;2022-10-14T00:41:15;10.00;99.90
8655;DHT22;13500;52.514;13.462;2022-10-14T00:43:56;10.00;99.90
8655;DHT22;13500;52.514;13.462;2022-10-14T00:46:25;10.00;99.90
8655;DHT22;13500;52.514;13.462;2022-10-14T00:49:06;9.90;99.90
8655;DHT22;13500;52.514;13.462;2022-10-14T00:51:36;9.90;99.90
8655;DHT22;13500;52.514;13.462;2022-10-14T00:54:06;9.90;99.90
8655;DHT22;13500;52.514;13.462;2022-10-14T00:56:35;9.90;99.90
8655;DHT22;13500;52.514;13.462;2022-10-14T00:59:07;9.90;99.90
8655;DHT22;13500;52.514;13.462;2022-10-14T01:01:35;9.90;99.90
8655;DHT22;13500;52.514;13.462;2022-10-14T01:04:05;9.90;99.90
8655;DHT22;13500;52.514;13.462;2022-10-14T01:06:43;9.80;99.90
8655;DHT22;13500;52.514;13.462;2022-10-14T01:09:20;9.80;99.90
8655;DHT22;13500;52.514;13.462;2022-10-14T01:12:00;9.80;99.90
8655;DHT22;13500;52.514;13.462;2022-10-14T01:14:53;9.80;99.90
8655;DHT22;13500;52.514;13.462;2022-10-14T01:17:35;9.80;99.90
8655;DHT22;13500;52.514;13.462;2022-10-14T01:20:34;9.80;99.90
8655;DHT22;13500;52.514;13.462;2022-10-14T01:23:24;9.80;99.90
8655;DHT22;13500;52.514;13.462;2022-10-14T01:25:59;9.80;99.90
8655;DHT22;13500;52.514;13.462;2022-10-14T01:28:41;9.80;99.90
8655;DHT22;13500;52.514;13.462;2022-10-14T01:31:17;9.80;99.90
8655;DHT22;13500;52.514;13.462;2022-10-14T01:33:50;9.80;99.90
8655;DHT22;13500;52.514;13.462;2022-10-14T01:36:23;9.70;99.90
8655;DHT22;13500;52.514;13.462;2022-10-14T01:38:57;9.70;99.90
8655;DHT22;13500;52.514;13.462;2022-10-14T01:41:31;9.70;99.90
8655;DHT22;13500;52.514;13.462;2022-10-14T01:44:04;9.70;99.90
8655;DHT22;13500;52.514;13.462;2022-10-14T01:46:36;9.70;99.90
8655;DHT22;13500;52.514;13.462;2022-10-14T01:49:09;9.70;99.90
8655;DHT22;13500;52.514;13.462;2022-10-14T01:51:42;9.70;99.90
8655;DHT22;13500;52.514;13.462;2022-10-14T01:54:15;9.70;99.90
8655;DHT22;13500;52.514;13.462;2022-10-14T01:56:46;9.60;99.90
8655;DHT22;13500;52.514;13.462;2022-10-14T01:59:17;9.60;99.90
8655;DHT22;13500;52.514;13.462;2022-10-14T02:01:49;9.60;99.90
8655;DHT22;13500;52.514;13.462;2022-10-14T02:04:19;9.60;99.90
8655;DHT22;13500;52.514;13.462;2022-10-14T02:06:53;9.60;99.90
8655;DHT22;13500;52.514;13.462;2022-10-14T02:09:31;9.60;99.90
8655;DHT22;13500;52.514;13.462;2022-10-14T02:12:12;9.50;99.90
8655;DHT22;13500;52.514;13.462;2022-10-14T02:14:52;9.50;99.90
8655;DHT22;13500;52.514;13.462;2022-10-14T02:17:29;9.50;99.90
8655;DHT22;13500;52.514;13.462;2022-10-14T02:20:02;9.60;99.90
8655;DHT22;13500;52.514;13.462;2022-10-14T02:22:36;9.50;99.90
8655;DHT22;13500;52.514;13.462;2022-10-14T02:25:24;9.50;99.90
8655;DHT22;13500;52.514;13.462;2022-10-14T02:27:53;9.50;99.90
8655;DHT22;13500;52.514;13.462;2022-10-14T02:30:21;9.50;99.90
8655;DHT22;13500;52.514;13.462;2022-10-14T02:32:58;9.40;99.90
8655;DHT22;13500;52.514;13.462;2022-10-14T02:35:27;9.40;99.90
8655;DHT22;13500;52.514;13.462;2022-10-14T02:37:57;9.40;99.90
8655;DHT22;13500;52.514;13.462;2022-10-14T02:40:28;9.40;99.90
8655;DHT22;13500;52.514;13.462;2022-10-14T02:42:58;9.40;99.90
8655;DHT22;13500;52.514;13.462;2022-10-14T02:45:26;9.30;99.90
8655;DHT22;13500;52.514;13.462;2022-10-14T02:47:56;9.30;99.90
8655;DHT22;13500;52.514;13.462;2022-10-14T02:50:24;9.30;99.90
8655;DHT22;13500;52.514;13.462;2022-10-14T02:52:52;9.40;99.90
8655;DHT22;13500;52.514;13.462;2022-10-14T02:55:20;9.30;99.90
8655;DHT22;13500;52.514;13.462;2022-10-14T02:57:48;9.30;99.90
8655;DHT22;13500;52.514;13.462;2022-10-14T03:00:17;9.40;99.90
8655;DHT22;13500;52.514;13.462;2022-10-14T03:02:45;9.40;99.90
8655;DHT22;13500;52.514;13.462;2022-10-14T03:05:18;9.40;99.90
8655;DHT22;13500;52.514;13.462;2022-10-14T03:07:46;9.50;99.90
8655;DHT22;13500;52.514;13.462;2022-10-14T03:10:17;9.50;99.90
8655;DHT22;13500;52.514;13.462;2022-10-14T03:12:45;9.60;99.90
8655;DHT22;13500;52.514;13.462;2022-10-14T03:15:22;9.60;99.90
8655;DHT22;13500;52.514;13.462;2022-10-14T03:17:51;9.60;99.90
8655;DHT22;13500;52.514;13.462;2022-10-14T03:20:25;9.60;99.90
8655;DHT22;13500;52.514;13.462;2022-10-14T03:22:55;9.60;99.90
8655;DHT22;13500;52.514;13.462;2022-10-14T03:25:23;9.70;99.90
8655;DHT22;13500;52.514;13.462;2022-10-14T03:28:00;9.70;99.90
8655;DHT22;13500;52.514;13.462;2022-10-14T03:30:47;9.70;99.90
8655;DHT22;13500;52.514;13.462;2022-10-14T03:33:26;9.80;99.90
8655;DHT22;13500;52.514;13.462;2022-10-14T03:36:07;9.70;99.90
8655;DHT22;13500;52.514;13.462;2022-10-14T03:38:43;9.70;99.90
8655;DHT22;13500;52.514;13.462;2022-10-14T03:41:22;9.70;99.90
8655;DHT22;13500;52.514;13.462;2022-10-14T03:43:51;9.80;99.90
8655;DHT22;13500;52.514;13.462;2022-10-14T03:46:19;9.70;99.90
8655;DHT22;13500;52.514;13.462;2022-10-14T03:48:49;9.70;99.90
8655;DHT22;13500;52.514;13.462;2022-10-14T03:51:19;9.60;99.90
8655;DHT22;13500;52.514;13.462;2022-10-14T03:53:47;9.60;99.90
8655;DHT22;13500;52.514;13.462;2022-10-14T03:56:23;9.60;99.90
8655;DHT22;13500;52.514;13.462;2022-10-14T03:58:52;9.50;99.90
8655;DHT22;13500;52.514;13.462;2022-10-14T04:01:21;9.40;99.90
8655;DHT22;13500;52.514;13.462;2022-10-14T04:04:10;9.50;99.90
8655;DHT22;13500;52.514;13.462;2022-10-14T04:06:40;9.40;99.90
8655;DHT22;13500;52.514;13.462;2022-10-14T04:09:08;9.40;99.90
8655;DHT22;13500;52.514;13.462;2022-10-14T04:11:39;9.30;99.90
8655;DHT22;13500;52.514;13.462;2022-10-14T04:14:15;9.30;99.90
8655;DHT22;13500;52.514;13.462;2022-10-14T04:16:47;9.30;99.90
8655;DHT22;13500;52.514;13.462;2022-10-14T04:19:16;9.30;99.90
8655;DHT22;13500;52.514;13.462;2022-10-14T04:21:46;9.30;99.90
8655;DHT22;13500;52.514;13.462;2022-10-14T04:24:16;9.30;99.90
8655;DHT22;13500;52.514;13.462;2022-10-14T04:26:49;9.30;99.90
8655;DHT22;13500;52.514;13.462;2022-10-14T04:29:25;9.20;99.90
8655;DHT22;13500;52.514;13.462;2022-10-14T04:32:02;9.30;99.90
8655;DHT22;13500;52.514;13.462;2022-10-14T04:34:30;9.20;99.90
8655;DHT22;13500;52.514;13.462;2022-10-14T04:37:00;9.20;99.90
8655;DHT22;13500;52.514;13.462;2022-10-14T04:39:41;9.20;99.90
8655;DHT22;13500;52.514;13.462;2022-10-14T04:42:10;9.20;99.90
8655;DHT22;13500;52.514;13.462;2022-10-14T04:44:39;9.20;99.90
8655;DHT22;13500;52.514;13.462;2022-10-14T04:47:09;9.20;99.90
8655;DHT22;13500;52.514;13.462;2022-10-14T04:49:38;9.20;99.90
8655;DHT22;13500;52.514;13.462;2022-10-14T04:52:16;9.30;99.90
8655;DHT22;13500;52.514;13.462;2022-10-14T04:54:56;9.30;99.90
8655;DHT22;13500;52.514;13.462;2022-10-14T04:57:40;9.30;99.90
8655;DHT22;13500;52.514;13.462;2022-10-14T05:00:11;9.30;99.90
8655;DHT22;13500;52.514;13.462;2022-10-14T05:02:42;9.30;99.90
8655;DHT22;13500;52.514;13.462;2022-10-14T05:05:10;9.40;99.90
8655;DHT22;13500;52.514;13.462;2022-10-14T05:07:43;9.40;99.90
8655;DHT22;13500;52.514;13.462;2022-10-14T05:10:29;9.40;99.90
8655;DHT22;13500;52.514;13.462;2022-10-14T05:12:58;9.40;99.90
8655;DHT22;13500;52.514;13.462;2022-10-14T05:15:30;9.40;99.90
8655;DHT22;13500;52.514;13.462;2022-10-14T05:18:05;9.50;99.90
8655;DHT22;13500;52.514;13.462;2022-10-14T05:20:48;9.50;99.90
8655;DHT22;13500;52.514;13.462;2022-10-14T05:23:23;9.50;99.90
8655;DHT22;13500;52.514;13.462;2022-10-14T05:25:52;9.60;99.90
8655;DHT22;13500;52.514;13.462;2022-10-14T05:28:22;9.60;99.90
8655;DHT22;13500;52.514;13.462;2022-10-14T05:30:50;9.60;99.90
8655;DHT22;13500;52.514;13.462;2022-10-14T05:33:19;9.70;99.90
8655;DHT22;13500;52.514;13.462;2022-10-14T05:35:47;9.70;99.90
8655;DHT22;13500;52.514;13.462;2022-10-14T05:38:34;9.70;99.90
8655;DHT22;13500;52.514;13.462;2022-10-14T05:41:02;9.70;99.90
8655;DHT22;13500;52.514;13.462;2022-10-14T05:43:31;9.80;99.90
8655;DHT22;13500;52.514;13.462;2022-10-14T05:46:02;9.80;99.90
8655;DHT22;13500;52.514;13.462;2022-10-14T05:48:35;9.80;99.90
8655;DHT22;13500;52.514;13.462;2022-10-14T05:51:04;9.90;99.90
8655;DHT22;13500;52.514;13.462;2022-10-14T05:53:36;9.90;99.90
8655;DHT22;13500;52.514;13.462;2022-10-14T05:56:10;9.90;99.90
8655;DHT22;13500;52.514;13.462;2022-10-14T05:58:39;10.00;99.90
8655;DHT22;13500;52.514;13.462;2022-10-14T06:01:09;10.00;99.90
8655;DHT22;13500;52.514;13.462;2022-10-14T06:03:40;10.10;99.90
8655;DHT22;13500;52.514;13.462;2022-10-14T06:06:11;10.10;99.90
8655;DHT22;13500;52.514;13.462;2022-10-14T06:08:41;10.20;99.90
8655;DHT22;13500;52.514;13.462;2022-10-14T06:11:09;10.30;99.90
8655;DHT22;13500;52.514;13.462;2022-10-14T06:13:37;10.30;99.90
8655;DHT22;13500;52.514;13.462;2022-10-14T06:16:09;10.30;99.90
8655;DHT22;13500;52.514;13.462;2022-10-14T06:18:38;10.30;99.90
8655;DHT22;13500;52.514;13.462;2022-10-14T06:21:06;10.20;99.90
8655;DHT22;13500;52.514;13.462;2022-10-14T06:23:34;10.30;99.90
8655;DHT22;13500;52.514;13.462;2022-10-14T06:26:05;10.30;99.90
8655;DHT22;13500;52.514;13.462;2022-10-14T06:28:34;10.40;99.90
8655;DHT22;13500;52.514;13.462;2022-10-14T06:31:03;10.30;99.90
8655;DHT22;13500;52.514;13.462;2022-10-14T06:33:32;10.40;99.90
8655;DHT22;13500;52.514;13.462;2022-10-14T06:36:01;10.40;99.90
8655;DHT22;13500;52.514;13.462;2022-10-14T06:38:29;10.40;99.90
8655;DHT22;13500;52.514;13.462;2022-10-14T06:40:57;10.50;99.90
8655;DHT22;13500;52.514;13.462;2022-10-14T06:43:27;10.50;99.90
8655;DHT22;13500;52.514;13.462;2022-10-14T06:45:56;10.50;99.90
8655;DHT22;13500;52.514;13.462;2022-10-14T06:48:24;10.60;99.90
8655;DHT22;13500;52.514;13.462;2022-10-14T06:50:52;10.60;99.90
8655;DHT22;13500;52.514;13.462;2022-10-14T06:53:20;10.60;99.90
8655;DHT22;13500;52.514;13.462;2022-10-14T06:55:48;10.70;99.90
8655;DHT22;13500;52.514;13.462;2022-10-14T06:58:16;10.70;99.90
8655;DHT22;13500;52.514;13.462;2022-10-14T07:00:45;10.60;99.90
8655;DHT22;13500;52.514;13.462;2022-10-14T07:03:14;10.70;99.90
8655;DHT22;13500;52.514;13.462;2022-10-14T07:05:42;10.70;99.90
8655;DHT22;13500;52.514;13.462;2022-10-14T07:08:10;10.70;99.90
8655;DHT22;13500;52.514;13.462;2022-10-14T07:10:41;10.80;99.90
8655;DHT22;13500;52.514;13.462;2022-10-14T07:13:09;10.90;99.90
8655;DHT22;13500;52.514;13.462;2022-10-14T07:15:38;10.90;99.90
8655;DHT22;13500;52.514;13.462;2022-10-14T07:18:07;10.90;99.90
8655;DHT22;13500;52.514;13.462;2022-10-14T07:20:35;10.90;99.90
8655;DHT22;13500;52.514;13.462;2022-10-14T07:23:03;11.10;99.90
8655;DHT22;13500;52.514;13.462;2022-10-14T07:25:31;11.20;99.90
8655;DHT22;13500;52.514;13.462;2022-10-14T07:27:59;11.30;99.90
8655;DHT22;13500;52.514;13.462;2022-10-14T07:30:27;11.40;99.90
8655;DHT22;13500;52.514;13.462;2022-10-14T07:32:55;11.50;99.90
8655;DHT22;13500;52.514;13.462;2022-10-14T07:35:25;11.60;99.90
8655;DHT22;13500;52.514;13.462;2022-10-14T07:37:54;11.60;99.90
8655;DHT22;13500;52.514;13.462;2022-10-14T07:40:22;11.80;99.90
8655;DHT22;13500;52.514;13.462;2022-10-14T07:42:50;11.80;99.90
8655;DHT22;13500;52.514;13.462;2022-10-14T07:45:18;11.80;99.90
8655;DHT22;13500;52.514;13.462;2022-10-14T07:47:49;11.90;99.90
8655;DHT22;13500;52.514;13.462;2022-10-14T07:50:18;11.90;99.90
8655;DHT22;13500;52.514;13.462;2022-10-14T07:52:47;12.00;99.90
8655;DHT22;13500;52.514;13.462;2022-10-14T07:55:15;12.00;99.90
8655;DHT22;13500;52.514;13.462;2022-10-14T07:57:43;12.00;99.90
8655;DHT22;13500;52.514;13.462;2022-10-14T08:00:12;12.10;99.90
8655;DHT22;13500;52.514;13.462;2022-10-14T08:02:40;12.10;99.90
8655;DHT22;13500;52.514;13.462;2022-10-14T08:05:08;12.10;99.90
8655;DHT22;13500;52.514;13.462;2022-10-14T08:07:57;12.20;99.90
8655;DHT22;13500;52.514;13.462;2022-10-14T08:10:25;12.50;99.90
8655;DHT22;13500;52.514;13.462;2022-10-14T08:12:53;12.60;99.90
8655;DHT22;13500;52.514;13.462;2022-10-14T08:15:23;12.80;99.90
8655;DHT22;13500;52.514;13.462;2022-10-14T08:17:54;12.80;99.90
8655;DHT22;13500;52.514;13.462;2022-10-14T08:20:22;13.00;99.90
8655;DHT22;13500;52.514;13.462;2022-10-14T08:22:50;13.50;99.90
8655;DHT22;13500;52.514;13.462;2022-10-14T08:25:19;13.80;99.90
8655;DHT22;13500;52.514;13.462;2022-10-14T08:27:48;14.30;99.90
8655;DHT22;13500;52.514;13.462;2022-10-14T08:30:17;14.90;99.90
8655;DHT22;13500;52.514;13.462;2022-10-14T08:32:45;15.50;99.90
8655;DHT22;13500;52.514;13.462;2022-10-14T08:35:13;15.90;99.90
8655;DHT22;13500;52.514;13.462;2022-10-14T08:37:41;16.60;99.90
8655;DHT22;13500;52.514;13.462;2022-10-14T08:40:14;17.40;99.90
8655;DHT22;13500;52.514;13.462;2022-10-14T08:42:48;18.20;99.90
8655;DHT22;13500;52.514;13.462;2022-10-14T08:45:21;19.80;99.90
8655;DHT22;13500;52.514;13.462;2022-10-14T08:47:52;21.50;99.90
8655;DHT22;13500;52.514;13.462;2022-10-14T08:50:26;23.30;99.90
8655;DHT22;13500;52.514;13.462;2022-10-14T08:52:57;24.00;99.90
8655;DHT22;13500;52.514;13.462;2022-10-14T08:55:29;25.00;99.90
8655;DHT22;13500;52.514;13.462;2022-10-14T08:58:05;25.60;99.90
8655;DHT22;13500;52.514;13.462;2022-10-14T09:00:39;26.70;99.50
8655;DHT22;13500;52.514;13.462;2022-10-14T09:03:15;26.30;96.40
8655;DHT22;13500;52.514;13.462;2022-10-14T09:05:43;26.00;95.90
8655;DHT22;13500;52.514;13.462;2022-10-14T09:08:14;25.20;96.20
8655;DHT22;13500;52.514;13.462;2022-10-14T09:10:44;24.50;96.40
8655;DHT22;13500;52.514;13.462;2022-10-14T09:13:17;23.60;97.00
8655;DHT22;13500;52.514;13.462;2022-10-14T09:15:49;23.10;98.00
8655;DHT22;13500;52.514;13.462;2022-10-14T09:18:25;22.90;98.30
8655;DHT22;13500;52.514;13.462;2022-10-14T09:20:55;22.80;98.20
8655;DHT22;13500;52.514;13.462;2022-10-14T09:23:26;23.10;98.90
8655;DHT22;13500;52.514;13.462;2022-10-14T09:25:56;23.90;97.20
8655;DHT22;13500;52.514;13.462;2022-10-14T09:28:32;24.40;97.30
8655;DHT22;13500;52.514;13.462;2022-10-14T09:31:03;24.50;97.30
8655;DHT22;13500;52.514;13.462;2022-10-14T09:33:31;25.20;95.90
8655;DHT22;13500;52.514;13.462;2022-10-14T09:36:13;26.00;95.00
8655;DHT22;13500;52.514;13.462;2022-10-14T09:38:42;25.80;94.20
8655;DHT22;13500;52.514;13.462;2022-10-14T09:41:12;27.40;94.20
8655;DHT22;13500;52.514;13.462;2022-10-14T09:44:15;28.60;92.00
8655;DHT22;13500;52.514;13.462;2022-10-14T09:46:47;26.90;91.00
8655;DHT22;13500;52.514;13.462;2022-10-14T09:49:18;24.70;93.10
8655;DHT22;13500;52.514;13.462;2022-10-14T09:51:49;24.20;93.80
8655;DHT22;13500;52.514;13.462;2022-10-14T09:54:22;24.10;94.30
8655;DHT22;13500;52.514;13.462;2022-10-14T09:56:57;24.40;94.10
8655;DHT22;13500;52.514;13.462;2022-10-14T09:59:27;24.00;94.40
8655;DHT22;13500;52.514;13.462;2022-10-14T10:01:57;24.20;94.70
8655;DHT22;13500;52.514;13.462;2022-10-14T10:04:33;24.60;94.20
8655;DHT22;13500;52.514;13.462;2022-10-14T10:07:04;25.30;93.70
8655;DHT22;13500;52.514;13.462;2022-10-14T10:09:33;25.80;93.60
8655;DHT22;13500;52.514;13.462;2022-10-14T10:12:21;24.80;93.80
8655;DHT22;13500;52.514;13.462;2022-10-14T10:14:57;24.00;94.10
8655;DHT22;13500;52.514;13.462;2022-10-14T10:17:26;24.10;94.00
8655;DHT22;13500;52.514;13.462;2022-10-14T10:20:07;23.50;94.40
8655;DHT22;13500;52.514;13.462;2022-10-14T10:22:36;23.00;95.20
8655;DHT22;13500;52.514;13.462;2022-10-14T10:25:20;22.00;95.60
8655;DHT22;13500;52.514;13.462;2022-10-14T10:27:52;21.80;95.90
8655;DHT22;13500;52.514;13.462;2022-10-14T10:30:25;21.20;96.40
8655;DHT22;13500;52.514;13.462;2022-10-14T10:33:16;20.80;97.40
8655;DHT22;13500;52.514;13.462;2022-10-14T10:35:59;20.40;98.10
8655;DHT22;13500;52.514;13.462;2022-10-14T10:38:38;20.20;98.60
8655;DHT22;13500;52.514;13.462;2022-10-14T10:41:24;20.20;99.00
8655;DHT22;13500;52.514;13.462;2022-10-14T10:44:14;19.70;99.50
8655;DHT22;13500;52.514;13.462;2022-10-14T10:47:02;19.60;99.90
8655;DHT22;13500;52.514;13.462;2022-10-14T10:52:46;19.70;99.90
8655;DHT22;13500;52.514;13.462;2022-10-14T10:55:25;19.70;99.90
8655;DHT22;13500;52.514;13.462;2022-10-14T10:58:02;19.60;99.90
8655;DHT22;13500;52.514;13.462;2022-10-14T11:00:43;19.60;99.90
8655;DHT22;13500;52.514;13.462;2022-10-14T11:03:34;19.60;99.90
8655;DHT22;13500;52.514;13.462;2022-10-14T11:06:09;19.60;99.90
8655;DHT22;13500;52.514;13.462;2022-10-14T11:08:52;19.40;99.90
8655;DHT22;13500;52.514;13.462;2022-10-14T11:11:47;18.90;99.90
8655;DHT22;13500;52.514;13.462;2022-10-14T11:14:46;18.50;99.90
8655;DHT22;13500;52.514;13.462;2022-10-14T11:17:21;18.20;99.90
8655;DHT22;13500;52.514;13.462;2022-10-14T11:19:57;18.30;99.90
8655;DHT22;13500;52.514;13.462;2022-10-14T11:22:40;18.20;99.90
8655;DHT22;13500;52.514;13.462;2022-10-14T11:25:18;18.30;99.90
8655;DHT22;13500;52.514;13.462;2022-10-14T11:27:53;18.20;99.90
8655;DHT22;13500;52.514;13.462;2022-10-14T11:30:31;18.10;99.90
8655;DHT22;13500;52.514;13.462;2022-10-14T11:33:13;18.20;99.90
8655;DHT22;13500;52.514;13.462;2022-10-14T11:35:52;18.10;99.90
8655;DHT22;13500;52.514;13.462;2022-10-14T11:38:33;18.50;99.90
8655;DHT22;13500;52.514;13.462;2022-10-14T11:41:14;18.50;99.90
8655;DHT22;13500;52.514;13.462;2022-10-14T11:43:49;18.90;99.90
8655;DHT22;13500;52.514;13.462;2022-10-14T11:46:21;18.60;99.90
8655;DHT22;13500;52.514;13.462;2022-10-14T11:48:54;18.60;99.90
8655;DHT22;13500;52.514;13.462;2022-10-14T11:51:28;18.70;99.90
8655;DHT22;13500;52.514;13.462;2022-10-14T11:54:03;18.60;99.90
8655;DHT22;13500;52.514;13.462;2022-10-14T11:56:40;18.40;99.90
8655;DHT22;13500;52.514;13.462;2022-10-14T11:59:26;18.30;99.90
8655;DHT22;13500;52.514;13.462;2022-10-14T12:02:09;18.10;99.90
8655;DHT22;13500;52.514;13.462;2022-10-14T12:04:42;18.20;99.90
8655;DHT22;13500;52.514;13.462;2022-10-14T12:07:16;18.20;99.90
8655;DHT22;13500;52.514;13.462;2022-10-14T12:09:50;18.20;99.90
8655;DHT22;13500;52.514;13.462;2022-10-14T12:12:26;18.30;99.90
8655;DHT22;13500;52.514;13.462;2022-10-14T12:14:57;18.50;99.90
8655;DHT22;13500;52.514;13.462;2022-10-14T12:17:30;18.50;99.90
8655;DHT22;13500;52.514;13.462;2022-10-14T12:20:03;18.30;99.90
8655;DHT22;13500;52.514;13.462;2022-10-14T12:22:37;18.40;99.90
8655;DHT22;13500;52.514;13.462;2022-10-14T12:25:11;18.40;99.90
8655;DHT22;13500;52.514;13.462;2022-10-14T12:27:40;18.40;99.90
8655;DHT22;13500;52.514;13.462;2022-10-14T12:30:31;18.40;99.90
8655;DHT22;13500;52.514;13.462;2022-10-14T12:33:00;18.20;99.90
8655;DHT22;13500;52.514;13.462;2022-10-14T12:35:46;18.10;99.90
8655;DHT22;13500;52.514;13.462;2022-10-14T12:38:20;17.80;99.90
8655;DHT22;13500;52.514;13.462;2022-10-14T12:40:48;17.70;99.90
8655;DHT22;13500;52.514;13.462;2022-10-14T12:43:19;17.60;99.90
8655;DHT22;13500;52.514;13.462;2022-10-14T12:45:59;17.50;99.90
8655;DHT22;13500;52.514;13.462;2022-10-14T12:48:30;17.60;99.90
8655;DHT22;13500;52.514;13.462;2022-10-14T12:51:09;17.70;99.90
8655;DHT22;13500;52.514;13.462;2022-10-14T12:53:49;17.90;99.90
8655;DHT22;13500;52.514;13.462;2022-10-14T12:56:28;17.90;99.90
8655;DHT22;13500;52.514;13.462;2022-10-14T12:58:59;17.90;99.90
8655;DHT22;13500;52.514;13.462;2022-10-14T13:01:29;18.00;99.90
8655;DHT22;13500;52.514;13.462;2022-10-14T13:04:05;18.00;99.90
8655;DHT22;13500;52.514;13.462;2022-10-14T13:06:36;17.90;99.90
8655;DHT22;13500;52.514;13.462;2022-10-14T13:15:32;18.90;99.90
8655;DHT22;13500;52.514;13.462;2022-10-14T13:18:33;18.80;99.90
8655;DHT22;13500;52.514;13.462;2022-10-14T13:21:02;18.80;99.90
8655;DHT22;13500;52.514;13.462;2022-10-14T13:23:37;18.70;99.90
8655;DHT22;13500;52.514;13.462;2022-10-14T13:26:19;18.70;99.90
8655;DHT22;13500;52.514;13.462;2022-10-14T13:28:57;18.80;99.90
8655;DHT22;13500;52.514;13.462;2022-10-14T13:31:34;19.10;99.90
8655;DHT22;13500;52.514;13.462;2022-10-14T13:34:12;19.70;99.90
8655;DHT22;13500;52.514;13.462;2022-10-14T13:36:55;19.90;99.90
8655;DHT22;13500;52.514;13.462;2022-10-14T13:39:24;19.60;99.90
8655;DHT22;13500;52.514;13.462;2022-10-14T13:41:55;19.50;99.90
8655;DHT22;13500;52.514;13.462;2022-10-14T13:44:24;19.20;99.90
8655;DHT22;13500;52.514;13.462;2022-10-14T13:46:54;18.80;99.90
8655;DHT22;13500;52.514;13.462;2022-10-14T13:49:26;18.70;99.90
8655;DHT22;13500;52.514;13.462;2022-10-14T13:51:57;18.70;99.90
8655;DHT22;13500;52.514;13.462;2022-10-14T13:54:27;18.70;99.90
8655;DHT22;13500;52.514;13.462;2022-10-14T13:56:59;18.40;99.90
8655;DHT22;13500;52.514;13.462;2022-10-14T13:59:47;18.40;99.90
8655;DHT22;13500;52.514;13.462;2022-10-14T14:02:42;18.30;99.90
8655;DHT22;13500;52.514;13.462;2022-10-14T14:05:19;18.20;99.90
8655;DHT22;13500;52.514;13.462;2022-10-14T14:07:48;18.10;99.90
8655;DHT22;13500;52.514;13.462;2022-10-14T14:10:37;17.90;99.90
8655;DHT22;13500;52.514;13.462;2022-10-14T14:13:26;17.80;99.90
8655;DHT22;13500;52.514;13.462;2022-10-14T14:15:55;17.80;99.90
8655;DHT22;13500;52.514;13.462;2022-10-14T14:18:34;17.80;99.90
8655;DHT22;13500;52.514;13.462;2022-10-14T14:21:24;17.60;99.90
8655;DHT22;13500;52.514;13.462;2022-10-14T14:23:54;17.60;99.90
8655;DHT22;13500;52.514;13.462;2022-10-14T14:26:28;17.60;99.90
8655;DHT22;13500;52.514;13.462;2022-10-14T14:29:02;17.50;99.90
8655;DHT22;13500;52.514;13.462;2022-10-14T14:31:32;17.40;99.90
8655;DHT22;13500;52.514;13.462;2022-10-14T14:34:22;17.40;99.90
8655;DHT22;13500;52.514;13.462;2022-10-14T14:36:50;17.30;99.90
8655;DHT22;13500;52.514;13.462;2022-10-14T14:39:29;17.30;99.90
8655;DHT22;13500;52.514;13.462;2022-10-14T14:41:58;17.20;99.90
8655;DHT22;13500;52.514;13.462;2022-10-14T14:44:30;17.20;99.90
8655;DHT22;13500;52.514;13.462;2022-10-14T14:47:01;17.30;99.90
8655;DHT22;13500;52.514;13.462;2022-10-14T14:49:34;17.20;99.90
8655;DHT22;13500;52.514;13.462;2022-10-14T14:52:05;17.30;99.90
8655;DHT22;13500;52.514;13.462;2022-10-14T14:54:33;17.30;99.90
8655;DHT22;13500;52.514;13.462;2022-10-14T14:57:12;17.40;99.90
8655;DHT22;13500;52.514;13.462;2022-10-14T14:59:42;17.60;99.90
8655;DHT22;13500;52.514;13.462;2022-10-14T15:02:14;17.70;99.90
8655;DHT22;13500;52.514;13.462;2022-10-14T15:04:58;17.90;99.90
8655;DHT22;13500;52.514;13.462;2022-10-14T15:07:27;17.80;99.90
8655;DHT22;13500;52.514;13.462;2022-10-14T15:09:57;17.80;99.90
8655;DHT22;13500;52.514;13.462;2022-10-14T15:12:27;17.80;99.90
8655;DHT22;13500;52.514;13.462;2022-10-14T15:14:57;17.70;99.90
8655;DHT22;13500;52.514;13.462;2022-10-14T15:17:29;17.50;99.90
8655;DHT22;13500;52.514;13.462;2022-10-14T15:20:23;17.40;99.90
8655;DHT22;13500;52.514;13.462;2022-10-14T15:22:53;17.20;99.90
8655;DHT22;13500;52.514;13.462;2022-10-14T15:25:26;17.10;99.90
8655;DHT22;13500;52.514;13.462;2022-10-14T15:27:55;17.00;99.90
8655;DHT22;13500;52.514;13.462;2022-10-14T15:30:31;16.80;99.90
8655;DHT22;13500;52.514;13.462;2022-10-14T15:33:09;16.70;99.90
8655;DHT22;13500;52.514;13.462;2022-10-14T15:35:40;16.70;99.90
8655;DHT22;13500;52.514;13.462;2022-10-14T15:38:11;16.50;99.90
8655;DHT22;13500;52.514;13.462;2022-10-14T15:40:42;16.50;99.90
8655;DHT22;13500;52.514;13.462;2022-10-14T15:43:13;16.40;99.90
8655;DHT22;13500;52.514;13.462;2022-10-14T15:45:47;16.40;99.90
8655;DHT22;13500;52.514;13.462;2022-10-14T15:48:38;16.30;99.90
8655;DHT22;13500;52.514;13.462;2022-10-14T15:51:12;16.30;99.90
8655;DHT22;13500;52.514;13.462;2022-10-14T15:53:41;16.20;99.90
8655;DHT22;13500;52.514;13.462;2022-10-14T15:56:09;16.20;99.90
8655;DHT22;13500;52.514;13.462;2022-10-14T15:58:37;16.20;99.90
8655;DHT22;13500;52.514;13.462;2022-10-14T16:01:05;16.10;99.90
8655;DHT22;13500;52.514;13.462;2022-10-14T16:03:35;16.10;99.90
8655;DHT22;13500;52.514;13.462;2022-10-14T16:06:10;16.00;99.90
8655;DHT22;13500;52.514;13.462;2022-10-14T16:08:38;15.90;99.90
8655;DHT22;13500;52.514;13.462;2022-10-14T16:11:24;15.90;99.90
8655;DHT22;13500;52.514;13.462;2022-10-14T16:13:52;15.80;99.90
8655;DHT22;13500;52.514;13.462;2022-10-14T16:16:23;15.70;99.90
8655;DHT22;13500;52.514;13.462;2022-10-14T16:18:52;15.60;99.90
8655;DHT22;13500;52.514;13.462;2022-10-14T16:21:22;15.60;99.90
8655;DHT22;13500;52.514;13.462;2022-10-14T16:23:50;15.50;99.90